sensor_id;sensor_type;location;lat;lon;timestamp;P1;durP1;ratioP1;P2;durP2;ratioP2
17398;SDS011;8817;48.170;8.592;2023-05-14T00:01:19;7.27;;;6.27;;
17398;SDS011;8817;48.170;8.592;2023-05-14T00:03:45;6.97;;;6.27;;
17398;SDS011;8817;48.170;8.592;2023-05-14T00:06:13;9.03;;;6.50;;
17398;SDS011;8817;48.170;8.592;2023-05-14T00:08:40;7.37;;;6.57;;
17398;SDS011;8817;48.170;8.592;2023-05-14T00:11:07;8.60;;;6.30;;
17398;SDS011;8817;48.170;8.592;2023-05-14T00:13:34;8.40;;;6.27;;
17398;SDS011;8817;48.170;8.592;2023-05-14T00:16:01;6.33;;;5.77;;
17398;SDS011;8817;48.170;8.592;2023-05-14T00:18:29;7.27;;;6.27;;
17398;SDS011;8817;48.170;8.592;2023-05-14T00:20:56;7.17;;;6.43;;
17398;SDS011;8817;48.170;8.592;2023-05-14T00:23:23;7.10;;;6.10;;
17398;SDS011;8817;48.170;8.592;2023-05-14T00:25:50;8.07;;;6.27;;
17398;SDS011;8817;48.170;8.592;2023-05-14T00:28:17;7.80;;;6.60;;
17398;SDS011;8817;48.170;8.592;2023-05-14T00:30:44;8.07;;;5.87;;
17398;SDS011;8817;48.170;8.592;2023-05-14T00:33:10;8.33;;;6.23;;
17398;SDS011;8817;48.170;8.592;2023-05-14T00:35:39;7.67;;;6.30;;
17398;SDS011;8817;48.170;8.592;2023-05-14T00:38:05;7.47;;;5.73;;
17398;SDS011;8817;48.170;8.592;2023-05-14T00:40:32;8.03;;;6.20;;
17398;SDS011;8817;48.170;8.592;2023-05-14T00:42:59;8.77;;;6.60;;
17398;SDS011;8817;48.170;8.592;2023-05-14T00:45:26;7.23;;;6.40;;
17398;SDS011;8817;48.170;8.592;2023-05-14T00:47:53;7.27;;;6.27;;
17398;SDS011;8817;48.170;8.592;2023-05-14T00:50:20;8.47;;;6.47;;
17398;SDS011;8817;48.170;8.592;2023-05-14T00:52:49;8.40;;;6.63;;
17398;SDS011;8817;48.170;8.592;2023-05-14T00:55:16;6.60;;;5.97;;
17398;SDS011;8817;48.170;8.592;2023-05-14T00:57:44;6.90;;;6.10;;
17398;SDS011;8817;48.170;8.592;2023-05-14T01:00:11;7.83;;;6.40;;
17398;SDS011;8817;48.170;8.592;2023-05-14T01:02:38;13.53;;;6.70;;
17398;SDS011;8817;48.170;8.592;2023-05-14T01:05:05;8.47;;;6.53;;
17398;SDS011;8817;48.170;8.592;2023-05-14T01:07:35;7.10;;;6.33;;
17398;SDS011;8817;48.170;8.592;2023-05-14T01:10:10;9.77;;;6.50;;
17398;SDS011;8817;48.170;8.592;2023-05-14T01:12:41;7.10;;;6.33;;
17398;SDS011;8817;48.170;8.592;2023-05-14T01:15:14;8.37;;;6.80;;
17398;SDS011;8817;48.170;8.592;2023-05-14T01:17:45;7.03;;;6.23;;
17398;SDS011;8817;48.170;8.592;2023-05-14T01:20:15;7.70;;;6.50;;
17398;SDS011;8817;48.170;8.592;2023-05-14T01:22:44;8.00;;;6.70;;
17398;SDS011;8817;48.170;8.592;2023-05-14T01:25:11;7.40;;;6.57;;
17398;SDS011;8817;48.170;8.592;2023-05-14T01:27:40;11.63;;;6.87;;
17398;SDS011;8817;48.170;8.592;2023-05-14T01:30:12;9.63;;;6.93;;
17398;SDS011;8817;48.170;8.592;2023-05-14T01:32:47;8.37;;;6.80;;
17398;SDS011;8817;48.170;8.592;2023-05-14T01:35:16;7.97;;;6.60;;
17398;SDS011;8817;48.170;8.592;2023-05-14T01:37:45;8.13;;;6.37;;
17398;SDS011;8817;48.170;8.592;2023-05-14T01:40:13;8.60;;;6.97;;
17398;SDS011;8817;48.170;8.592;2023-05-14T01:42:40;7.17;;;6.47;;
17398;SDS011;8817;48.170;8.592;2023-05-14T01:45:09;8.23;;;6.47;;
17398;SDS011;8817;48.170;8.592;2023-05-14T01:47:36;8.23;;;6.50;;
17398;SDS011;8817;48.170;8.592;2023-05-14T01:50:03;7.00;;;6.27;;
17398;SDS011;8817;48.170;8.592;2023-05-14T01:52:31;8.40;;;6.83;;
17398;SDS011;8817;48.170;8.592;2023-05-14T01:54:59;7.67;;;6.50;;
17398;SDS011;8817;48.170;8.592;2023-05-14T01:57:26;9.13;;;6.50;;
17398;SDS011;8817;48.170;8.592;2023-05-14T01:59:53;8.63;;;6.93;;
17398;SDS011;8817;48.170;8.592;2023-05-14T02:02:20;8.80;;;6.60;;
17398;SDS011;8817;48.170;8.592;2023-05-14T02:04:47;8.77;;;6.83;;
17398;SDS011;8817;48.170;8.592;2023-05-14T02:07:14;7.57;;;6.83;;
17398;SDS011;8817;48.170;8.592;2023-05-14T02:09:41;8.03;;;6.30;;
17398;SDS011;8817;48.170;8.592;2023-05-14T02:12:09;7.57;;;6.60;;
17398;SDS011;8817;48.170;8.592;2023-05-14T02:14:36;9.37;;;6.90;;
17398;SDS011;8817;48.170;8.592;2023-05-14T02:17:03;8.53;;;6.87;;
17398;SDS011;8817;48.170;8.592;2023-05-14T02:19:30;7.33;;;6.63;;
17398;SDS011;8817;48.170;8.592;2023-05-14T02:21:57;7.57;;;6.67;;
17398;SDS011;8817;48.170;8.592;2023-05-14T02:24:25;10.03;;;7.33;;
17398;SDS011;8817;48.170;8.592;2023-05-14T02:26:51;9.53;;;7.13;;
17398;SDS011;8817;48.170;8.592;2023-05-14T02:29:20;8.87;;;7.03;;
17398;SDS011;8817;48.170;8.592;2023-05-14T02:31:47;8.23;;;7.17;;
17398;SDS011;8817;48.170;8.592;2023-05-14T02:34:13;7.50;;;6.63;;
17398;SDS011;8817;48.170;8.592;2023-05-14T02:36:40;8.73;;;6.90;;
17398;SDS011;8817;48.170;8.592;2023-05-14T02:39:07;10.07;;;6.90;;
17398;SDS011;8817;48.170;8.592;2023-05-14T02:41:34;9.03;;;6.83;;
17398;SDS011;8817;48.170;8.592;2023-05-14T02:44:01;7.30;;;6.50;;
17398;SDS011;8817;48.170;8.592;2023-05-14T02:46:29;8.23;;;6.63;;
17398;SDS011;8817;48.170;8.592;2023-05-14T02:48:56;8.47;;;6.73;;
17398;SDS011;8817;48.170;8.592;2023-05-14T02:51:23;10.10;;;6.77;;
17398;SDS011;8817;48.170;8.592;2023-05-14T02:53:51;10.50;;;6.70;;
17398;SDS011;8817;48.170;8.592;2023-05-14T02:56:18;8.63;;;6.93;;
17398;SDS011;8817;48.170;8.592;2023-05-14T02:58:45;8.77;;;6.90;;
17398;SDS011;8817;48.170;8.592;2023-05-14T03:01:12;7.20;;;6.43;;
17398;SDS011;8817;48.170;8.592;2023-05-14T03:03:40;7.77;;;6.40;;
17398;SDS011;8817;48.170;8.592;2023-05-14T03:06:07;7.47;;;6.47;;
17398;SDS011;8817;48.170;8.592;2023-05-14T03:08:34;8.20;;;6.80;;
17398;SDS011;8817;48.170;8.592;2023-05-14T03:11:01;7.73;;;6.70;;
17398;SDS011;8817;48.170;8.592;2023-05-14T03:13:28;7.90;;;6.37;;
17398;SDS011;8817;48.170;8.592;2023-05-14T03:15:55;7.70;;;6.73;;
17398;SDS011;8817;48.170;8.592;2023-05-14T03:18:21;9.93;;;6.73;;
17398;SDS011;8817;48.170;8.592;2023-05-14T03:20:50;7.47;;;6.30;;
17398;SDS011;8817;48.170;8.592;2023-05-14T03:23:16;8.20;;;7.03;;
17398;SDS011;8817;48.170;8.592;2023-05-14T03:25:43;9.93;;;7.03;;
17398;SDS011;8817;48.170;8.592;2023-05-14T03:28:10;10.17;;;7.10;;
17398;SDS011;8817;48.170;8.592;2023-05-14T03:30:37;8.83;;;6.33;;
17398;SDS011;8817;48.170;8.592;2023-05-14T03:33:04;10.77;;;6.90;;
17398;SDS011;8817;48.170;8.592;2023-05-14T03:35:31;7.60;;;6.57;;
17398;SDS011;8817;48.170;8.592;2023-05-14T03:37:59;7.17;;;6.47;;
17398;SDS011;8817;48.170;8.592;2023-05-14T03:40:26;9.33;;;6.60;;
17398;SDS011;8817;48.170;8.592;2023-05-14T03:42:53;8.47;;;6.93;;
17398;SDS011;8817;48.170;8.592;2023-05-14T03:45:20;9.33;;;6.63;;
17398;SDS011;8817;48.170;8.592;2023-05-14T03:47:47;8.17;;;6.60;;
17398;SDS011;8817;48.170;8.592;2023-05-14T03:50:13;7.90;;;6.73;;
17398;SDS011;8817;48.170;8.592;2023-05-14T03:52:40;7.10;;;6.03;;
17398;SDS011;8817;48.170;8.592;2023-05-14T03:55:09;7.60;;;6.57;;
17398;SDS011;8817;48.170;8.592;2023-05-14T03:57:36;8.00;;;7.17;;
17398;SDS011;8817;48.170;8.592;2023-05-14T04:00:03;7.20;;;6.50;;
17398;SDS011;8817;48.170;8.592;2023-05-14T04:02:31;8.40;;;6.83;;
17398;SDS011;8817;48.170;8.592;2023-05-14T04:04:58;7.13;;;6.33;;
17398;SDS011;8817;48.170;8.592;2023-05-14T04:07:24;8.07;;;7.00;;
17398;SDS011;8817;48.170;8.592;2023-05-14T04:09:51;8.10;;;6.70;;
17398;SDS011;8817;48.170;8.592;2023-05-14T04:12:20;7.40;;;6.60;;
17398;SDS011;8817;48.170;8.592;2023-05-14T04:14:46;8.63;;;6.47;;
17398;SDS011;8817;48.170;8.592;2023-05-14T04:17:13;8.50;;;6.50;;
17398;SDS011;8817;48.170;8.592;2023-05-14T04:19:40;7.87;;;6.17;;
17398;SDS011;8817;48.170;8.592;2023-05-14T04:22:07;7.20;;;6.50;;
17398;SDS011;8817;48.170;8.592;2023-05-14T04:24:34;7.60;;;6.33;;
17398;SDS011;8817;48.170;8.592;2023-05-14T04:27:01;10.23;;;6.87;;
17398;SDS011;8817;48.170;8.592;2023-05-14T04:29:29;8.73;;;6.63;;
17398;SDS011;8817;48.170;8.592;2023-05-14T04:31:56;7.00;;;6.40;;
17398;SDS011;8817;48.170;8.592;2023-05-14T04:34:23;7.30;;;6.10;;
17398;SDS011;8817;48.170;8.592;2023-05-14T04:36:50;7.00;;;6.37;;
17398;SDS011;8817;48.170;8.592;2023-05-14T04:39:17;8.13;;;6.80;;
17398;SDS011;8817;48.170;8.592;2023-05-14T04:41:44;6.70;;;6.00;;
17398;SDS011;8817;48.170;8.592;2023-05-14T04:44:11;7.03;;;6.33;;
17398;SDS011;8817;48.170;8.592;2023-05-14T04:46:39;7.37;;;6.17;;
17398;SDS011;8817;48.170;8.592;2023-05-14T04:49:06;6.77;;;6.13;;
17398;SDS011;8817;48.170;8.592;2023-05-14T04:51:33;7.57;;;6.13;;
17398;SDS011;8817;48.170;8.592;2023-05-14T04:54:00;6.80;;;6.10;;
17398;SDS011;8817;48.170;8.592;2023-05-14T04:56:27;6.77;;;6.07;;
17398;SDS011;8817;48.170;8.592;2023-05-14T04:58:54;6.83;;;6.03;;
17398;SDS011;8817;48.170;8.592;2023-05-14T05:01:20;7.97;;;6.57;;
17398;SDS011;8817;48.170;8.592;2023-05-14T05:03:49;7.63;;;6.40;;
17398;SDS011;8817;48.170;8.592;2023-05-14T05:06:16;7.30;;;6.43;;
17398;SDS011;8817;48.170;8.592;2023-05-14T05:08:43;9.07;;;6.63;;
17398;SDS011;8817;48.170;8.592;2023-05-14T05:11:10;9.53;;;7.03;;
17398;SDS011;8817;48.170;8.592;2023-05-14T05:13:37;6.90;;;6.13;;
17398;SDS011;8817;48.170;8.592;2023-05-14T05:16:04;8.00;;;6.40;;
17398;SDS011;8817;48.170;8.592;2023-05-14T05:18:31;8.27;;;6.50;;
17398;SDS011;8817;48.170;8.592;2023-05-14T05:20:59;8.23;;;6.47;;
17398;SDS011;8817;48.170;8.592;2023-05-14T05:23:26;7.23;;;6.53;;
17398;SDS011;8817;48.170;8.592;2023-05-14T05:25:53;8.40;;;6.80;;
17398;SDS011;8817;48.170;8.592;2023-05-14T05:28:20;7.27;;;6.53;;
17398;SDS011;8817;48.170;8.592;2023-05-14T05:30:47;8.87;;;6.93;;
17398;SDS011;8817;48.170;8.592;2023-05-14T05:33:13;8.50;;;6.77;;
17398;SDS011;8817;48.170;8.592;2023-05-14T05:35:41;8.50;;;6.90;;
17398;SDS011;8817;48.170;8.592;2023-05-14T05:38:09;9.30;;;7.17;;
17398;SDS011;8817;48.170;8.592;2023-05-14T05:40:36;8.47;;;7.00;;
17398;SDS011;8817;48.170;8.592;2023-05-14T05:43:03;10.77;;;6.83;;
17398;SDS011;8817;48.170;8.592;2023-05-14T05:45:30;11.33;;;7.17;;
17398;SDS011;8817;48.170;8.592;2023-05-14T05:47:57;7.97;;;6.70;;
17398;SDS011;8817;48.170;8.592;2023-05-14T05:50:24;8.27;;;6.97;;
17398;SDS011;8817;48.170;8.592;2023-05-14T05:52:51;7.10;;;6.30;;
17398;SDS011;8817;48.170;8.592;2023-05-14T05:55:20;9.30;;;6.77;;
17398;SDS011;8817;48.170;8.592;2023-05-14T05:57:46;9.90;;;6.93;;
17398;SDS011;8817;48.170;8.592;2023-05-14T06:00:13;10.83;;;7.23;;
17398;SDS011;8817;48.170;8.592;2023-05-14T06:02:41;9.03;;;6.93;;
17398;SDS011;8817;48.170;8.592;2023-05-14T06:05:09;8.40;;;6.77;;
17398;SDS011;8817;48.170;8.592;2023-05-14T06:07:36;7.83;;;6.67;;
17398;SDS011;8817;48.170;8.592;2023-05-14T06:10:03;10.33;;;7.10;;
17398;SDS011;8817;48.170;8.592;2023-05-14T06:12:32;8.37;;;6.50;;
17398;SDS011;8817;48.170;8.592;2023-05-14T06:14:59;11.93;;;7.00;;
17398;SDS011;8817;48.170;8.592;2023-05-14T06:17:26;9.20;;;6.83;;
17398;SDS011;8817;48.170;8.592;2023-05-14T06:19:53;9.37;;;7.00;;
17398;SDS011;8817;48.170;8.592;2023-05-14T06:22:20;9.90;;;7.20;;
17398;SDS011;8817;48.170;8.592;2023-05-14T06:24:47;7.97;;;7.07;;
17398;SDS011;8817;48.170;8.592;2023-05-14T06:27:14;10.55;;;7.30;;
17398;SDS011;8817;48.170;8.592;2023-05-14T06:29:42;11.37;;;6.83;;
17398;SDS011;8817;48.170;8.592;2023-05-14T06:32:09;8.10;;;6.40;;
17398;SDS011;8817;48.170;8.592;2023-05-14T06:34:39;10.67;;;6.90;;
17398;SDS011;8817;48.170;8.592;2023-05-14T06:37:06;13.73;;;7.50;;
17398;SDS011;8817;48.170;8.592;2023-05-14T06:39:33;9.93;;;6.90;;
17398;SDS011;8817;48.170;8.592;2023-05-14T06:42:00;13.93;;;7.37;;
17398;SDS011;8817;48.170;8.592;2023-05-14T06:44:27;9.50;;;7.10;;
17398;SDS011;8817;48.170;8.592;2023-05-14T06:46:55;8.93;;;6.93;;
17398;SDS011;8817;48.170;8.592;2023-05-14T06:49:22;11.27;;;7.70;;
17398;SDS011;8817;48.170;8.592;2023-05-14T06:51:49;8.73;;;6.90;;
17398;SDS011;8817;48.170;8.592;2023-05-14T06:54:16;9.00;;;7.20;;
17398;SDS011;8817;48.170;8.592;2023-05-14T06:56:44;10.70;;;7.10;;
17398;SDS011;8817;48.170;8.592;2023-05-14T06:59:11;10.85;;;7.50;;
17398;SDS011;8817;48.170;8.592;2023-05-14T07:01:38;9.57;;;7.17;;
17398;SDS011;8817;48.170;8.592;2023-05-14T07:04:07;10.13;;;6.93;;
17398;SDS011;8817;48.170;8.592;2023-05-14T07:06:34;9.13;;;7.10;;
17398;SDS011;8817;48.170;8.592;2023-05-14T07:09:01;12.53;;;7.73;;
17398;SDS011;8817;48.170;8.592;2023-05-14T07:11:28;8.50;;;6.80;;
17398;SDS011;8817;48.170;8.592;2023-05-14T07:13:55;8.63;;;6.75;;
17398;SDS011;8817;48.170;8.592;2023-05-14T07:16:22;9.77;;;7.00;;
17398;SDS011;8817;48.170;8.592;2023-05-14T07:18:49;13.13;;;7.70;;
17398;SDS011;8817;48.170;8.592;2023-05-14T07:21:17;9.85;;;7.00;;
17398;SDS011;8817;48.170;8.592;2023-05-14T07:23:44;8.65;;;6.80;;
17398;SDS011;8817;48.170;8.592;2023-05-14T07:26:11;8.32;;;6.32;;
17398;SDS011;8817;48.170;8.592;2023-05-14T07:28:38;9.70;;;7.03;;
17398;SDS011;8817;48.170;8.592;2023-05-14T07:31:05;7.22;;;6.40;;
17398;SDS011;8817;48.170;8.592;2023-05-14T07:33:32;9.13;;;6.55;;
17398;SDS011;8817;48.170;8.592;2023-05-14T07:35:59;9.05;;;6.70;;
17398;SDS011;8817;48.170;8.592;2023-05-14T07:38:28;7.28;;;6.13;;
17398;SDS011;8817;48.170;8.592;2023-05-14T07:40:55;7.55;;;6.20;;
17398;SDS011;8817;48.170;8.592;2023-05-14T07:43:22;8.93;;;6.10;;
17398;SDS011;8817;48.170;8.592;2023-05-14T07:45:49;8.25;;;6.05;;
17398;SDS011;8817;48.170;8.592;2023-05-14T07:48:16;6.97;;;6.28;;
17398;SDS011;8817;48.170;8.592;2023-05-14T07:50:43;7.60;;;6.15;;
17398;SDS011;8817;48.170;8.592;2023-05-14T07:53:10;9.80;;;6.47;;
17398;SDS011;8817;48.170;8.592;2023-05-14T07:55:39;7.85;;;6.38;;
17398;SDS011;8817;48.170;8.592;2023-05-14T07:58:06;9.13;;;6.30;;
17398;SDS011;8817;48.170;8.592;2023-05-14T08:00:33;6.90;;;6.20;;
17398;SDS011;8817;48.170;8.592;2023-05-14T08:03:00;10.65;;;6.90;;
17398;SDS011;8817;48.170;8.592;2023-05-14T08:05:26;7.93;;;6.18;;
17398;SDS011;8817;48.170;8.592;2023-05-14T08:07:53;9.75;;;6.20;;
17398;SDS011;8817;48.170;8.592;2023-05-14T08:10:20;6.85;;;6.10;;
17398;SDS011;8817;48.170;8.592;2023-05-14T08:12:48;7.30;;;6.18;;
17398;SDS011;8817;48.170;8.592;2023-05-14T08:15:15;7.90;;;6.68;;
17398;SDS011;8817;48.170;8.592;2023-05-14T08:17:42;7.63;;;6.30;;
17398;SDS011;8817;48.170;8.592;2023-05-14T08:20:09;7.40;;;6.60;;
17398;SDS011;8817;48.170;8.592;2023-05-14T08:22:37;10.95;;;6.60;;
17398;SDS011;8817;48.170;8.592;2023-05-14T08:25:04;8.07;;;6.40;;
17398;SDS011;8817;48.170;8.592;2023-05-14T08:27:31;9.02;;;7.10;;
17398;SDS011;8817;48.170;8.592;2023-05-14T08:30:00;8.48;;;6.80;;
17398;SDS011;8817;48.170;8.592;2023-05-14T08:32:27;10.97;;;6.67;;
17398;SDS011;8817;48.170;8.592;2023-05-14T08:34:53;10.67;;;7.20;;
17398;SDS011;8817;48.170;8.592;2023-05-14T08:37:20;8.05;;;6.55;;
17398;SDS011;8817;48.170;8.592;2023-05-14T08:39:47;8.20;;;7.00;;
17398;SDS011;8817;48.170;8.592;2023-05-14T08:42:14;8.20;;;6.20;;
17398;SDS011;8817;48.170;8.592;2023-05-14T08:44:47;8.13;;;6.57;;
17398;SDS011;8817;48.170;8.592;2023-05-14T08:47:20;8.80;;;7.07;;
17398;SDS011;8817;48.170;8.592;2023-05-14T08:49:49;8.63;;;6.78;;
17398;SDS011;8817;48.170;8.592;2023-05-14T08:52:20;7.10;;;6.40;;
17398;SDS011;8817;48.170;8.592;2023-05-14T08:54:48;6.80;;;6.00;;
17398;SDS011;8817;48.170;8.592;2023-05-14T08:57:17;8.20;;;6.25;;
17398;SDS011;8817;48.170;8.592;2023-05-14T08:59:48;7.70;;;6.83;;
17398;SDS011;8817;48.170;8.592;2023-05-14T09:02:15;11.13;;;7.28;;
17398;SDS011;8817;48.170;8.592;2023-05-14T09:04:45;8.90;;;6.70;;
17398;SDS011;8817;48.170;8.592;2023-05-14T09:07:13;6.90;;;6.15;;
17398;SDS011;8817;48.170;8.592;2023-05-14T09:09:40;8.48;;;6.00;;
17398;SDS011;8817;48.170;8.592;2023-05-14T09:12:09;7.70;;;6.40;;
17398;SDS011;8817;48.170;8.592;2023-05-14T09:14:36;7.15;;;6.45;;
17398;SDS011;8817;48.170;8.592;2023-05-14T09:17:02;7.97;;;6.30;;
17398;SDS011;8817;48.170;8.592;2023-05-14T09:19:31;7.67;;;6.40;;
17398;SDS011;8817;48.170;8.592;2023-05-14T09:21:58;7.78;;;5.88;;
17398;SDS011;8817;48.170;8.592;2023-05-14T09:24:25;7.07;;;5.88;;
17398;SDS011;8817;48.170;8.592;2023-05-14T09:26:54;6.63;;;5.78;;
17398;SDS011;8817;48.170;8.592;2023-05-14T09:29:22;6.95;;;6.10;;
17398;SDS011;8817;48.170;8.592;2023-05-14T09:31:49;9.40;;;6.55;;
17398;SDS011;8817;48.170;8.592;2023-05-14T09:34:23;6.87;;;6.13;;
17398;SDS011;8817;48.170;8.592;2023-05-14T09:36:54;7.35;;;6.18;;
17398;SDS011;8817;48.170;8.592;2023-05-14T09:39:22;7.82;;;6.03;;
17398;SDS011;8817;48.170;8.592;2023-05-14T09:41:49;6.82;;;6.07;;
17398;SDS011;8817;48.170;8.592;2023-05-14T09:44:16;6.70;;;6.00;;
17398;SDS011;8817;48.170;8.592;2023-05-14T09:46:43;6.47;;;5.80;;
17398;SDS011;8817;48.170;8.592;2023-05-14T09:49:11;8.40;;;6.30;;
17398;SDS011;8817;48.170;8.592;2023-05-14T09:51:38;18.70;;;8.63;;
17398;SDS011;8817;48.170;8.592;2023-05-14T09:54:07;9.38;;;6.78;;
17398;SDS011;8817;48.170;8.592;2023-05-14T09:56:34;7.13;;;5.97;;
17398;SDS011;8817;48.170;8.592;2023-05-14T09:59:03;7.80;;;6.60;;
17398;SDS011;8817;48.170;8.592;2023-05-14T10:01:30;6.80;;;6.15;;
17398;SDS011;8817;48.170;8.592;2023-05-14T10:03:58;8.05;;;6.70;;
17398;SDS011;8817;48.170;8.592;2023-05-14T10:06:26;6.65;;;6.03;;
17398;SDS011;8817;48.170;8.592;2023-05-14T10:08:56;7.15;;;5.85;;
17398;SDS011;8817;48.170;8.592;2023-05-14T10:11:30;6.95;;;5.97;;
17398;SDS011;8817;48.170;8.592;2023-05-14T10:13:59;8.00;;;6.05;;
17398;SDS011;8817;48.170;8.592;2023-05-14T10:16:32;7.20;;;6.00;;
17398;SDS011;8817;48.170;8.592;2023-05-14T10:19:03;6.55;;;5.93;;
17398;SDS011;8817;48.170;8.592;2023-05-14T10:21:33;6.18;;;5.35;;
17398;SDS011;8817;48.170;8.592;2023-05-14T10:24:01;5.78;;;5.38;;
17398;SDS011;8817;48.170;8.592;2023-05-14T10:26:30;6.88;;;5.97;;
17398;SDS011;8817;48.170;8.592;2023-05-14T10:28:58;5.88;;;5.30;;
17398;SDS011;8817;48.170;8.592;2023-05-14T10:37:06;6.32;;;5.68;;
17398;SDS011;8817;48.170;8.592;2023-05-14T10:39:44;6.55;;;5.85;;
17398;SDS011;8817;48.170;8.592;2023-05-14T10:42:14;6.13;;;5.53;;
17398;SDS011;8817;48.170;8.592;2023-05-14T10:44:47;5.88;;;5.28;;
17398;SDS011;8817;48.170;8.592;2023-05-14T10:47:15;7.03;;;5.70;;
17398;SDS011;8817;48.170;8.592;2023-05-14T10:49:43;6.13;;;5.53;;
17398;SDS011;8817;48.170;8.592;2023-05-14T10:52:14;6.38;;;5.63;;
17398;SDS011;8817;48.170;8.592;2023-05-14T10:54:49;6.13;;;5.35;;
17398;SDS011;8817;48.170;8.592;2023-05-14T10:57:20;10.60;;;7.00;;
17398;SDS011;8817;48.170;8.592;2023-05-14T10:59:48;16.13;;;8.40;;
17398;SDS011;8817;48.170;8.592;2023-05-14T11:02:17;7.40;;;6.00;;
17398;SDS011;8817;48.170;8.592;2023-05-14T11:04:55;6.05;;;5.18;;
17398;SDS011;8817;48.170;8.592;2023-05-14T11:07:26;5.40;;;4.90;;
17398;SDS011;8817;48.170;8.592;2023-05-14T11:09:59;8.13;;;5.18;;
17398;SDS011;8817;48.170;8.592;2023-05-14T11:12:29;5.25;;;4.80;;
17398;SDS011;8817;48.170;8.592;2023-05-14T11:14:57;5.28;;;4.78;;
17398;SDS011;8817;48.170;8.592;2023-05-14T11:17:26;4.97;;;4.57;;
17398;SDS011;8817;48.170;8.592;2023-05-14T11:19:54;5.40;;;4.90;;
17398;SDS011;8817;48.170;8.592;2023-05-14T11:22:21;5.70;;;5.20;;
17398;SDS011;8817;48.170;8.592;2023-05-14T11:24:48;5.72;;;5.22;;
17398;SDS011;8817;48.170;8.592;2023-05-14T11:27:16;5.57;;;5.05;;
17398;SDS011;8817;48.170;8.592;2023-05-14T11:29:44;5.45;;;5.00;;
17398;SDS011;8817;48.170;8.592;2023-05-14T11:32:13;5.70;;;5.20;;
17398;SDS011;8817;48.170;8.592;2023-05-14T11:34:40;5.72;;;5.22;;
17398;SDS011;8817;48.170;8.592;2023-05-14T11:37:09;5.57;;;5.00;;
17398;SDS011;8817;48.170;8.592;2023-05-14T11:39:38;5.70;;;5.18;;
17398;SDS011;8817;48.170;8.592;2023-05-14T11:42:08;6.90;;;5.47;;
17398;SDS011;8817;48.170;8.592;2023-05-14T11:44:38;6.82;;;5.35;;
17398;SDS011;8817;48.170;8.592;2023-05-14T11:47:09;6.05;;;5.47;;
17398;SDS011;8817;48.170;8.592;2023-05-14T11:49:36;5.80;;;5.30;;
17398;SDS011;8817;48.170;8.592;2023-05-14T11:52:04;6.05;;;5.00;;
17398;SDS011;8817;48.170;8.592;2023-05-14T11:54:32;6.00;;;5.07;;
17398;SDS011;8817;48.170;8.592;2023-05-14T11:57:00;5.65;;;5.15;;
17398;SDS011;8817;48.170;8.592;2023-05-14T11:59:32;6.20;;;4.93;;
17398;SDS011;8817;48.170;8.592;2023-05-14T12:02:00;5.53;;;4.97;;
17398;SDS011;8817;48.170;8.592;2023-05-14T12:04:29;5.50;;;5.00;;
17398;SDS011;8817;48.170;8.592;2023-05-14T12:06:57;5.43;;;4.88;;
17398;SDS011;8817;48.170;8.592;2023-05-14T12:09:24;5.28;;;4.78;;
17398;SDS011;8817;48.170;8.592;2023-05-14T12:11:51;5.18;;;4.70;;
17398;SDS011;8817;48.170;8.592;2023-05-14T12:14:18;6.55;;;5.10;;
17398;SDS011;8817;48.170;8.592;2023-05-14T12:16:47;5.20;;;4.70;;
17398;SDS011;8817;48.170;8.592;2023-05-14T12:19:14;5.05;;;4.65;;
17398;SDS011;8817;48.170;8.592;2023-05-14T12:21:44;5.00;;;4.60;;
17398;SDS011;8817;48.170;8.592;2023-05-14T12:24:14;5.40;;;4.90;;
17398;SDS011;8817;48.170;8.592;2023-05-14T12:26:43;4.78;;;4.38;;
17398;SDS011;8817;48.170;8.592;2023-05-14T12:29:11;5.30;;;4.90;;
17398;SDS011;8817;48.170;8.592;2023-05-14T12:31:43;5.68;;;4.80;;
17398;SDS011;8817;48.170;8.592;2023-05-14T12:34:11;5.38;;;4.97;;
17398;SDS011;8817;48.170;8.592;2023-05-14T12:36:39;5.05;;;4.68;;
17398;SDS011;8817;48.170;8.592;2023-05-14T12:39:07;5.30;;;4.90;;
17398;SDS011;8817;48.170;8.592;2023-05-14T12:41:35;8.05;;;4.38;;
17398;SDS011;8817;48.170;8.592;2023-05-14T12:44:02;4.90;;;4.50;;
17398;SDS011;8817;48.170;8.592;2023-05-14T12:46:30;4.72;;;4.43;;
17398;SDS011;8817;48.170;8.592;2023-05-14T12:48:58;5.22;;;4.78;;
17398;SDS011;8817;48.170;8.592;2023-05-14T12:51:25;4.85;;;4.55;;
17398;SDS011;8817;48.170;8.592;2023-05-14T12:53:52;5.10;;;4.70;;
17398;SDS011;8817;48.170;8.592;2023-05-14T12:56:20;4.85;;;4.45;;
17398;SDS011;8817;48.170;8.592;2023-05-14T12:58:52;5.30;;;4.80;;
17398;SDS011;8817;48.170;8.592;2023-05-14T13:01:19;5.07;;;4.68;;
17398;SDS011;8817;48.170;8.592;2023-05-14T13:03:46;5.30;;;4.80;;
17398;SDS011;8817;48.170;8.592;2023-05-14T13:06:13;5.28;;;4.78;;
17398;SDS011;8817;48.170;8.592;2023-05-14T13:08:40;5.45;;;4.80;;
17398;SDS011;8817;48.170;8.592;2023-05-14T13:11:07;5.05;;;4.55;;
17398;SDS011;8817;48.170;8.592;2023-05-14T13:13:36;4.80;;;4.45;;
17398;SDS011;8817;48.170;8.592;2023-05-14T13:16:03;5.07;;;4.68;;
17398;SDS011;8817;48.170;8.592;2023-05-14T13:18:30;5.30;;;4.90;;
17398;SDS011;8817;48.170;8.592;2023-05-14T13:20:57;4.43;;;4.13;;
17398;SDS011;8817;48.170;8.592;2023-05-14T13:23:24;4.63;;;4.32;;
17398;SDS011;8817;48.170;8.592;2023-05-14T13:25:50;4.85;;;4.45;;
17398;SDS011;8817;48.170;8.592;2023-05-14T13:28:17;4.60;;;4.30;;
17398;SDS011;8817;48.170;8.592;2023-05-14T13:33:31;4.40;;;4.13;;
17398;SDS011;8817;48.170;8.592;2023-05-14T13:35:59;3.97;;;3.78;;
17398;SDS011;8817;48.170;8.592;2023-05-14T13:38:27;4.20;;;4.00;;
17398;SDS011;8817;48.170;8.592;2023-05-14T13:40:54;3.97;;;3.80;;
17398;SDS011;8817;48.170;8.592;2023-05-14T13:43:26;4.22;;;4.03;;
17398;SDS011;8817;48.170;8.592;2023-05-14T13:45:53;4.15;;;3.95;;
17398;SDS011;8817;48.170;8.592;2023-05-14T13:48:22;6.22;;;4.25;;
17398;SDS011;8817;48.170;8.592;2023-05-14T13:50:49;4.15;;;3.95;;
17398;SDS011;8817;48.170;8.592;2023-05-14T13:53:16;4.40;;;4.20;;
17398;SDS011;8817;48.170;8.592;2023-05-14T13:55:44;4.10;;;3.90;;
17398;SDS011;8817;48.170;8.592;2023-05-14T13:58:11;4.60;;;4.00;;
17398;SDS011;8817;48.170;8.592;2023-05-14T14:00:38;4.47;;;4.18;;
17398;SDS011;8817;48.170;8.592;2023-05-14T14:03:05;6.85;;;5.15;;
17398;SDS011;8817;48.170;8.592;2023-05-14T14:05:34;5.30;;;4.90;;
17398;SDS011;8817;48.170;8.592;2023-05-14T14:08:01;5.00;;;4.60;;
17398;SDS011;8817;48.170;8.592;2023-05-14T14:10:27;5.10;;;4.70;;
17398;SDS011;8817;48.170;8.592;2023-05-14T14:12:55;5.15;;;4.75;;
17398;SDS011;8817;48.170;8.592;2023-05-14T14:15:21;5.30;;;4.90;;
17398;SDS011;8817;48.170;8.592;2023-05-14T14:17:48;5.20;;;4.70;;
17398;SDS011;8817;48.170;8.592;2023-05-14T14:20:15;5.38;;;4.85;;
17398;SDS011;8817;48.170;8.592;2023-05-14T14:22:44;4.00;;;3.80;;
17398;SDS011;8817;48.170;8.592;2023-05-14T14:25:11;4.10;;;3.90;;
17398;SDS011;8817;48.170;8.592;2023-05-14T14:27:37;4.47;;;4.28;;
17398;SDS011;8817;48.170;8.592;2023-05-14T14:30:05;4.70;;;4.40;;
17398;SDS011;8817;48.170;8.592;2023-05-14T14:32:39;4.07;;;3.75;;
17398;SDS011;8817;48.170;8.592;2023-05-14T14:35:07;3.90;;;3.70;;
17398;SDS011;8817;48.170;8.592;2023-05-14T14:37:34;4.20;;;4.00;;
17398;SDS011;8817;48.170;8.592;2023-05-14T14:40:03;4.28;;;4.07;;
17398;SDS011;8817;48.170;8.592;2023-05-14T14:42:32;6.13;;;3.50;;
17398;SDS011;8817;48.170;8.592;2023-05-14T14:44:59;3.88;;;3.58;;
17398;SDS011;8817;48.170;8.592;2023-05-14T14:47:26;6.45;;;3.90;;
17398;SDS011;8817;48.170;8.592;2023-05-14T14:49:54;3.60;;;3.40;;
17398;SDS011;8817;48.170;8.592;2023-05-14T14:52:21;4.38;;;3.95;;
17398;SDS011;8817;48.170;8.592;2023-05-14T14:54:48;3.72;;;3.63;;
17398;SDS011;8817;48.170;8.592;2023-05-14T14:57:16;3.83;;;3.65;;
17398;SDS011;8817;48.170;8.592;2023-05-14T14:59:43;3.90;;;3.72;;
17398;SDS011;8817;48.170;8.592;2023-05-14T15:02:10;3.60;;;3.50;;
17398;SDS011;8817;48.170;8.592;2023-05-14T15:04:37;4.10;;;3.80;;
17398;SDS011;8817;48.170;8.592;2023-05-14T15:07:04;3.67;;;3.58;;
17398;SDS011;8817;48.170;8.592;2023-05-14T15:09:31;3.70;;;3.60;;
17398;SDS011;8817;48.170;8.592;2023-05-14T15:11:58;3.67;;;3.58;;